createdAt,value
2019-02-15T00:01:57.183Z,38.57
2019-02-15T00:04:28.482Z,36.83
2019-02-15T00:06:58.787Z,39.20
2019-02-15T00:09:29.174Z,38.43
2019-02-15T00:11:59.710Z,36.03
2019-02-15T00:14:41.775Z,40.67
2019-02-15T00:17:12.465Z,40.03
2019-02-15T00:19:46.263Z,39.43
2019-02-15T00:22:16.570Z,37.17
2019-02-15T00:24:47.439Z,36.90
2019-02-15T00:27:17.895Z,38.53
2019-02-15T00:29:48.387Z,38.23
2019-02-15T00:32:18.695Z,40.10
2019-02-15T00:34:49.243Z,39.77
2019-02-15T00:37:19.618Z,34.33
2019-02-15T00:39:50.082Z,41.23
2019-02-15T00:42:20.629Z,40.67
2019-02-15T00:44:50.965Z,42.80
2019-02-15T00:47:46.018Z,36.87
2019-02-15T00:50:41.203Z,41.13
2019-02-15T00:53:20.970Z,40.87
2019-02-15T00:56:10.245Z,39.57
2019-02-15T00:58:57.978Z,40.17
2019-02-15T01:01:50.484Z,39.57
2019-02-15T01:04:38.167Z,39.13
2019-02-15T01:07:25.891Z,37.93
2019-02-15T01:10:06.891Z,38.70
2019-02-15T01:12:46.206Z,39.20
2019-02-15T01:15:16.743Z,38.90
2019-02-15T01:17:47.062Z,35.37
2019-02-15T01:20:17.347Z,40.10
2019-02-15T01:22:47.671Z,40.27
2019-02-15T01:25:18.137Z,39.97
2019-02-15T01:28:16.592Z,37.97
2019-02-15T01:31:08.890Z,41.07
2019-02-15T01:33:49.281Z,35.43
2019-02-15T01:36:27.640Z,35.73
2019-02-15T01:39:17.929Z,36.87
2019-02-15T01:41:58.815Z,39.10
2019-02-15T01:44:33.791Z,39.73
2019-02-15T01:47:17.347Z,40.40
2019-02-15T01:49:47.658Z,37.40
2019-02-15T01:52:18.123Z,36.13
2019-02-15T01:54:48.426Z,39.83
2019-02-15T01:57:18.722Z,40.33
2019-02-15T01:59:49.012Z,41.23
2019-02-15T02:02:19.743Z,37.17
2019-02-15T02:04:50.235Z,39.03
2019-02-15T02:07:20.573Z,39.10
2019-02-15T02:09:50.923Z,37.60
2019-02-15T02:12:21.228Z,36.83
2019-02-15T02:14:51.547Z,42.73
2019-02-15T02:17:22.353Z,39.40
2019-02-15T02:19:52.649Z,38.10
2019-02-15T02:22:23.086Z,41.20
2019-02-15T02:24:53.427Z,37.80
2019-02-15T02:27:23.734Z,37.27
2019-02-15T02:29:54.258Z,34.77
2019-02-15T02:32:24.798Z,33.63
2019-02-15T02:34:55.261Z,31.70
2019-02-15T02:37:25.619Z,33.53
2019-02-15T02:39:56.047Z,33.07
2019-02-15T02:42:26.347Z,32.77
2019-02-15T02:44:56.644Z,33.83
2019-02-15T02:47:27.366Z,33.17
2019-02-15T02:49:57.680Z,36.73
2019-02-15T02:52:28.209Z,45.83
2019-02-15T02:54:58.560Z,38.27
2019-02-15T02:57:29.087Z,36.40
2019-02-15T02:59:59.384Z,35.77
2019-02-15T03:02:30.175Z,31.10
2019-02-15T03:05:00.504Z,29.97
2019-02-15T03:07:30.931Z,29.40
2019-02-15T03:10:01.233Z,28.83
2019-02-15T03:12:31.567Z,27.57
2019-02-15T03:15:02.092Z,29.73
2019-02-15T03:17:33.639Z,26.10
2019-02-15T03:20:04.352Z,27.23
2019-02-15T03:22:34.665Z,25.30
2019-02-15T03:25:05.385Z,23.97
2019-02-15T03:27:35.768Z,23.37
2019-02-15T03:30:06.700Z,29.23
2019-02-15T03:32:37.249Z,26.50
2019-02-15T03:35:08.160Z,28.33
2019-02-15T03:38:00.434Z,26.83
2019-02-15T03:40:35.470Z,26.93
2019-02-15T03:43:05.895Z,29.10
2019-02-15T03:45:36.486Z,20.60
2019-02-15T03:48:06.824Z,25.20
2019-02-15T03:50:37.218Z,26.57
2019-02-15T03:53:07.523Z,25.63
2019-02-15T03:55:37.908Z,24.97
2019-02-15T03:58:08.219Z,26.67
2019-02-15T04:00:38.596Z,25.13
2019-02-15T04:03:09.115Z,25.57
2019-02-15T04:05:39.438Z,30.17
2019-02-15T04:08:09.878Z,26.73
2019-02-15T04:10:40.171Z,28.47
2019-02-15T04:13:10.493Z,29.23
2019-02-15T04:15:41.034Z,25.03
2019-02-15T04:18:11.548Z,27.07
2019-02-15T04:20:41.995Z,33.30
2019-02-15T04:23:12.291Z,35.10
2019-02-15T04:25:42.607Z,31.13
2019-02-15T04:28:13.104Z,35.47
2019-02-15T04:30:43.428Z,30.73
2019-02-15T04:33:14.159Z,34.00
2019-02-15T04:35:44.531Z,34.73
2019-02-15T04:38:14.944Z,32.40
2019-02-15T04:40:45.235Z,31.30
2019-02-15T04:43:15.551Z,37.93
2019-02-15T04:45:46.043Z,31.13
2019-02-15T04:48:16.529Z,30.10
2019-02-15T04:50:46.928Z,33.33
2019-02-15T04:53:17.241Z,32.13
2019-02-15T04:55:47.607Z,30.93
2019-02-15T04:58:18.159Z,26.50
2019-02-15T05:00:48.442Z,22.87
2019-02-15T05:03:19.655Z,29.60
2019-02-15T05:05:49.964Z,29.53
2019-02-15T05:08:20.377Z,29.90
2019-02-15T05:10:50.659Z,34.17
2019-02-15T05:13:21.266Z,30.87
2019-02-15T05:15:51.586Z,28.43
2019-02-15T05:18:22.163Z,34.20
2019-02-15T05:20:52.491Z,35.53
2019-02-15T05:23:22.993Z,27.77
2019-02-15T05:25:53.296Z,27.63
2019-02-15T05:28:23.627Z,27.43
2019-02-15T05:30:54.144Z,25.03
2019-02-15T05:33:24.613Z,28.83
2019-02-15T05:35:55.131Z,29.67
2019-02-15T05:38:26.324Z,39.83
2019-02-15T05:40:56.850Z,29.23
2019-02-15T05:43:27.199Z,27.53
2019-02-15T05:45:57.571Z,29.93
2019-02-15T05:48:28.183Z,27.13
2019-02-15T05:50:58.483Z,27.40
2019-02-15T05:53:28.887Z,25.03
2019-02-15T05:55:59.192Z,26.70
2019-02-15T05:58:29.499Z,27.97
2019-02-15T06:00:59.840Z,28.90
2019-02-15T06:03:30.403Z,27.57
2019-02-15T06:06:00.702Z,25.97
2019-02-15T06:08:31.398Z,27.10
2019-02-15T06:11:07.183Z,25.33
2019-02-15T06:13:33.771Z,27.07
2019-02-15T06:16:04.074Z,24.73
2019-02-15T06:18:34.712Z,28.27
2019-02-15T06:21:05.103Z,26.63
2019-02-15T06:23:35.424Z,26.57
2019-02-15T06:26:05.756Z,26.53
2019-02-15T06:28:36.211Z,26.20
2019-02-15T06:31:06.530Z,24.33
2019-02-15T06:33:37.151Z,26.17
2019-02-15T06:36:07.455Z,27.33
2019-02-15T06:38:37.985Z,29.50
2019-02-15T06:41:08.322Z,26.87
2019-02-15T06:43:38.632Z,28.80
2019-02-15T06:46:08.962Z,27.67
2019-02-15T06:48:39.527Z,27.07
2019-02-15T06:51:09.988Z,28.73
2019-02-15T06:53:40.323Z,27.40
2019-02-15T06:56:10.629Z,27.73
2019-02-15T06:58:52.601Z,26.50
2019-02-15T07:01:37.926Z,24.30
2019-02-15T07:04:21.259Z,26.17
2019-02-15T07:06:51.551Z,24.87
2019-02-15T07:09:22.120Z,28.63
2019-02-15T07:11:52.419Z,29.67
2019-02-15T07:14:22.794Z,26.67
2019-02-15T07:16:53.079Z,27.30
2019-02-15T07:19:23.570Z,27.27
2019-02-15T07:21:54.011Z,28.03
2019-02-15T07:24:24.339Z,27.43
2019-02-15T07:26:55.814Z,28.00
2019-02-15T07:29:26.115Z,28.67
2019-02-15T07:31:56.408Z,26.97
2019-02-15T07:34:27.100Z,29.30
2019-02-15T07:36:57.387Z,28.00
2019-02-15T07:39:27.703Z,27.83
2019-02-15T07:41:58.182Z,29.00
2019-02-15T07:44:28.511Z,27.77
2019-02-15T07:46:59.916Z,26.67
2019-02-15T07:49:30.397Z,25.30
2019-02-15T07:52:00.711Z,25.03
2019-02-15T07:54:31.167Z,24.53
2019-02-15T07:57:01.461Z,26.20
2019-02-15T07:59:32.015Z,26.83
2019-02-15T08:02:02.378Z,26.90
2019-02-15T08:04:32.790Z,26.33
2019-02-15T08:07:03.079Z,26.87
2019-02-15T08:09:33.398Z,26.87
2019-02-15T08:12:03.782Z,26.53
2019-02-15T08:14:34.088Z,26.67
2019-02-15T08:17:04.404Z,25.43
2019-02-15T08:19:35.027Z,24.87
2019-02-15T08:22:05.319Z,22.60
2019-02-15T08:24:35.667Z,24.57
2019-02-15T08:27:06.040Z,23.67
2019-02-15T08:29:36.354Z,23.93
2019-02-15T08:32:06.655Z,24.80
2019-02-15T08:34:38.407Z,22.77
2019-02-15T08:37:08.730Z,23.97
2019-02-15T08:39:39.178Z,24.80
2019-02-15T08:42:09.519Z,22.67
2019-02-15T08:44:39.958Z,24.43
2019-02-15T08:47:10.258Z,23.60
2019-02-15T08:49:40.945Z,24.90
2019-02-15T08:52:11.228Z,25.80
2019-02-15T08:54:41.548Z,25.80
2019-02-15T08:57:12.009Z,24.10
2019-02-15T08:59:42.357Z,25.40
2019-02-15T09:02:20.008Z,23.37
2019-02-15T09:04:50.491Z,24.07
2019-02-15T09:07:21.019Z,23.13
2019-02-15T09:09:51.363Z,23.93
2019-02-15T09:12:21.634Z,23.50
2019-02-15T09:14:52.401Z,22.77
2019-02-15T09:17:22.692Z,22.60
2019-02-15T09:19:53.376Z,21.77
2019-02-15T09:22:23.687Z,21.17
2019-02-15T09:24:54.199Z,20.40
2019-02-15T09:27:41.506Z,22.63
2019-02-15T09:30:13.399Z,23.07
2019-02-15T09:32:43.690Z,20.80
2019-02-15T09:35:14.383Z,21.60
2019-02-15T09:37:44.662Z,20.93
2019-02-15T09:40:15.007Z,22.07
2019-02-15T09:42:45.320Z,19.70
2019-02-15T09:45:15.659Z,20.37
2019-02-15T09:47:46.028Z,20.17
2019-02-15T09:50:16.571Z,20.03
2019-02-15T09:52:47.063Z,21.60
2019-02-15T09:55:17.375Z,20.27
2019-02-15T09:57:47.677Z,19.77
2019-02-15T10:00:18.183Z,21.70
2019-02-15T10:02:48.483Z,21.57
2019-02-15T10:05:19.239Z,21.77
2019-02-15T10:07:49.541Z,20.23
2019-02-15T10:10:21.049Z,20.17
2019-02-15T10:12:51.362Z,22.00
2019-02-15T10:15:21.686Z,21.70
2019-02-15T10:17:52.137Z,21.80
2019-02-15T10:20:23.646Z,19.50
2019-02-15T10:22:54.159Z,20.33
2019-02-15T10:25:24.462Z,20.53
2019-02-15T10:27:54.911Z,21.60
2019-02-15T10:30:25.199Z,22.23
2019-02-15T10:32:55.539Z,21.80
2019-02-15T10:35:26.311Z,20.70
2019-02-15T10:37:56.635Z,20.13
2019-02-15T10:40:27.007Z,20.03
2019-02-15T10:42:57.391Z,19.10
2019-02-15T10:45:27.723Z,20.03
2019-02-15T10:47:58.283Z,19.03
2019-02-15T10:50:29.119Z,18.43
2019-02-15T10:52:59.602Z,17.57
2019-02-15T10:55:29.883Z,19.23
2019-02-15T10:58:00.428Z,18.87
2019-02-15T11:00:31.699Z,18.23
2019-02-15T11:03:02.154Z,18.37
2019-02-15T11:05:33.023Z,19.77
2019-02-15T11:08:03.370Z,17.87
2019-02-15T11:10:33.685Z,19.33
2019-02-15T11:13:04.220Z,19.83
2019-02-15T11:15:34.546Z,19.77
2019-02-15T11:18:07.740Z,18.17
2019-02-15T11:20:38.268Z,19.40
2019-02-15T11:23:08.621Z,19.43
2019-02-15T11:25:39.139Z,19.27
2019-02-15T11:28:09.420Z,19.03
2019-02-15T11:30:39.740Z,18.53
2019-02-15T11:33:10.380Z,17.93
2019-02-15T11:35:40.843Z,16.63
2019-02-15T11:38:11.308Z,15.87
2019-02-15T11:40:41.635Z,15.00
2019-02-15T11:43:12.148Z,14.97
2019-02-15T11:45:42.457Z,13.83
2019-02-15T11:48:13.067Z,14.07
2019-02-15T11:50:43.691Z,13.67
2019-02-15T11:53:14.161Z,14.47
2019-02-15T11:55:44.474Z,14.60
2019-02-15T11:58:14.891Z,14.73
2019-02-15T12:00:45.195Z,15.13
2019-02-15T12:03:15.478Z,14.40
2019-02-15T12:05:46.030Z,14.50
2019-02-15T12:08:16.366Z,15.73
2019-02-15T12:10:46.668Z,15.97
2019-02-15T12:13:17.011Z,16.90
2019-02-15T12:15:47.369Z,15.13
2019-02-15T12:18:17.651Z,17.30
2019-02-15T12:20:48.150Z,16.50
2019-02-15T12:23:18.445Z,15.90
2019-02-15T12:25:49.002Z,15.00
2019-02-15T12:28:19.315Z,14.07
2019-02-15T12:30:49.622Z,18.95
2019-02-15T12:33:19.978Z,14.70
2019-02-15T12:35:50.455Z,15.43
2019-02-15T12:38:20.731Z,13.93
2019-02-15T12:40:51.195Z,14.53
2019-02-15T12:43:21.559Z,13.80
2019-02-15T12:45:52.101Z,14.13
2019-02-15T12:48:22.435Z,14.53
2019-02-15T12:50:54.055Z,12.63
2019-02-15T12:53:24.354Z,13.43
2019-02-15T12:55:54.663Z,13.30
2019-02-15T12:58:25.111Z,12.63
2019-02-15T13:00:55.431Z,12.43
2019-02-15T13:03:25.778Z,11.70
2019-02-15T13:05:56.267Z,12.53
2019-02-15T13:08:26.561Z,11.57
2019-02-15T13:10:58.055Z,13.20
2019-02-15T13:13:28.340Z,13.43
2019-02-15T13:15:58.658Z,13.37
2019-02-15T13:18:29.191Z,15.13
2019-02-15T13:20:59.635Z,13.73
2019-02-15T13:23:30.934Z,12.60
2019-02-15T13:26:08.318Z,14.50
2019-02-15T13:28:33.195Z,13.50
2019-02-15T13:31:03.507Z,14.67
2019-02-15T13:33:34.039Z,16.03
2019-02-15T13:36:04.609Z,15.67
2019-02-15T13:38:34.958Z,17.10
2019-02-15T13:41:05.269Z,17.03
2019-02-15T13:43:35.592Z,14.20
2019-02-15T13:46:06.087Z,15.93
2019-02-15T13:48:36.371Z,16.90
2019-02-15T13:51:06.971Z,16.70
2019-02-15T13:53:37.364Z,16.63
2019-02-15T13:56:07.663Z,16.63
2019-02-15T13:58:37.991Z,16.67
2019-02-15T14:01:08.375Z,15.63
2019-02-15T14:03:38.699Z,17.20
2019-02-15T14:06:09.197Z,17.37
2019-02-15T14:08:39.491Z,15.97
2019-02-15T14:11:09.826Z,16.10
2019-02-15T14:13:40.155Z,13.27
2019-02-15T14:16:10.482Z,14.30
2019-02-15T14:18:41.026Z,14.13
2019-02-15T14:21:11.555Z,14.33
2019-02-15T14:23:42.075Z,14.63
2019-02-15T14:26:12.399Z,13.37
2019-02-15T14:28:42.678Z,13.80
2019-02-15T14:31:13.142Z,14.43
2019-02-15T14:33:43.443Z,12.40
2019-02-15T14:36:14.197Z,12.63
2019-02-15T14:38:44.532Z,14.60
2019-02-15T14:41:14.868Z,13.70
2019-02-15T14:43:45.171Z,15.73
2019-02-15T14:46:15.479Z,14.03
2019-02-15T14:48:45.827Z,16.30
2019-02-15T14:51:16.354Z,15.23
2019-02-15T14:53:46.666Z,15.73
2019-02-15T14:56:17.255Z,15.23
2019-02-15T14:58:47.570Z,16.60
2019-02-15T15:01:18.131Z,17.50
2019-02-15T15:03:48.431Z,18.17
2019-02-15T15:06:19.126Z,17.67
2019-02-15T15:08:49.417Z,18.97
2019-02-15T15:11:19.723Z,17.00
2019-02-15T15:13:50.283Z,18.40
2019-02-15T15:16:20.587Z,17.07
2019-02-15T15:18:51.220Z,16.93
2019-02-15T15:21:21.710Z,16.73
2019-02-15T15:23:52.005Z,16.17
2019-02-15T15:26:22.339Z,16.43
2019-02-15T15:28:52.643Z,16.73
2019-02-15T15:31:23.171Z,17.00
2019-02-15T15:33:53.539Z,17.70
2019-02-15T15:36:24.297Z,18.27
2019-02-15T15:38:54.603Z,17.87
2019-02-15T15:41:24.951Z,18.10
2019-02-15T15:43:55.269Z,15.93
2019-02-15T15:46:25.571Z,17.10
2019-02-15T15:48:56.114Z,16.93
2019-02-15T15:51:26.668Z,17.50
2019-02-15T15:53:57.047Z,20.13
2019-02-15T15:56:27.388Z,20.03
2019-02-15T15:58:57.992Z,20.97
2019-02-15T16:01:28.305Z,20.73
2019-02-15T16:03:58.614Z,18.50
2019-02-15T16:06:29.287Z,18.97
2019-02-15T16:08:59.624Z,18.37
2019-02-15T16:11:29.963Z,20.37
2019-02-15T16:14:00.266Z,21.43
2019-02-15T16:16:30.591Z,19.63
2019-02-15T16:19:00.955Z,21.53
2019-02-15T16:21:31.421Z,22.67
2019-02-15T16:24:01.721Z,24.40
2019-02-15T16:26:32.076Z,22.43
2019-02-15T16:29:02.357Z,24.13
2019-02-15T16:31:32.671Z,23.00
2019-02-15T16:34:02.990Z,23.83
2019-02-15T16:36:33.547Z,24.33
2019-02-15T16:39:04.986Z,25.87
2019-02-15T16:41:35.360Z,25.33
2019-02-15T16:44:05.715Z,22.83
2019-02-15T16:46:36.034Z,24.93
2019-02-15T16:49:06.361Z,24.07
2019-02-15T16:51:37.118Z,26.13
2019-02-15T16:54:07.436Z,25.63
2019-02-15T16:56:37.711Z,25.83
2019-02-15T16:59:08.220Z,26.10
2019-02-15T17:01:38.559Z,27.27
2019-02-15T17:04:08.891Z,24.93
2019-02-15T17:06:39.384Z,27.83
2019-02-15T17:09:16.700Z,29.60
2019-02-15T17:11:47.011Z,30.07
2019-02-15T17:14:17.551Z,32.27
2019-02-15T17:16:47.889Z,29.50
2019-02-15T17:19:18.388Z,29.63
2019-02-15T17:21:48.856Z,31.70
2019-02-15T17:24:19.425Z,28.70
2019-02-15T17:26:49.712Z,32.57
2019-02-15T17:29:20.155Z,32.63
2019-02-15T17:31:50.473Z,33.13
2019-02-15T17:34:20.974Z,33.57
2019-02-15T17:36:53.208Z,30.47
2019-02-15T17:39:23.528Z,31.77
2019-02-15T17:41:53.849Z,32.10
2019-02-15T17:44:24.189Z,32.63
2019-02-15T17:46:55.468Z,33.90
2019-02-15T17:49:26.873Z,30.47
2019-02-15T17:51:57.331Z,41.90
2019-02-15T17:54:27.643Z,36.60
2019-02-15T17:56:58.092Z,34.60
2019-02-15T17:59:28.395Z,41.37
2019-02-15T18:01:58.696Z,34.80
2019-02-15T18:04:29.253Z,36.77
2019-02-15T18:06:59.816Z,39.47
2019-02-15T18:09:30.365Z,42.80
2019-02-15T18:12:00.745Z,53.83
2019-02-15T18:14:31.113Z,49.47
2019-02-15T18:17:01.492Z,134.27
2019-02-15T18:19:32.012Z,47.43
2019-02-15T18:22:03.054Z,61.23
2019-02-15T18:24:34.533Z,67.93
2019-02-15T18:27:04.973Z,49.10
2019-02-15T18:29:35.343Z,40.53
2019-02-15T18:32:05.727Z,41.60
2019-02-15T18:34:36.189Z,42.10
2019-02-15T18:37:06.662Z,43.00
2019-02-15T18:39:37.151Z,36.47
2019-02-15T18:42:07.600Z,37.77
2019-02-15T18:44:37.966Z,42.27
2019-02-15T18:47:08.249Z,39.77
2019-02-15T18:49:38.541Z,33.83
2019-02-15T18:52:09.151Z,35.17
2019-02-15T18:54:39.466Z,39.73
2019-02-15T18:57:09.943Z,36.37
2019-02-15T18:59:40.279Z,41.50
2019-02-15T19:02:10.579Z,34.67
2019-02-15T19:04:41.062Z,48.00
2019-02-15T19:07:11.552Z,46.37
2019-02-15T19:09:42.056Z,40.30
2019-02-15T19:12:12.368Z,35.27
2019-02-15T19:14:42.669Z,39.17
2019-02-15T19:17:13.205Z,36.27
2019-02-15T19:19:43.503Z,38.77
2019-02-15T19:22:15.281Z,44.87
2019-02-15T19:24:45.603Z,39.90
2019-02-15T19:27:16.154Z,40.07
2019-02-15T19:29:46.446Z,40.37
2019-02-15T19:32:17.047Z,43.63
2019-02-15T19:34:47.316Z,44.83
2019-02-15T19:37:18.145Z,37.13
2019-02-15T19:39:48.451Z,46.70
2019-02-15T19:42:21.184Z,42.33
2019-02-15T19:44:51.528Z,37.53
2019-02-15T19:47:22.100Z,48.80
2019-02-15T19:49:53.382Z,45.60
2019-02-15T19:52:24.343Z,50.77
2019-02-15T19:54:54.743Z,53.40
2019-02-15T19:57:25.088Z,52.13
2019-02-15T19:59:55.427Z,49.40
2019-02-15T20:02:25.936Z,60.13
2019-02-15T20:04:57.221Z,53.67
2019-02-15T20:07:28.059Z,59.37
2019-02-15T20:09:58.351Z,53.67
2019-02-15T20:12:28.783Z,53.00
2019-02-15T20:14:59.163Z,59.20
2019-02-15T20:17:29.461Z,55.67
2019-02-15T20:20:00.007Z,67.13
2019-02-15T20:22:30.490Z,55.17
2019-02-15T20:25:00.969Z,58.60
2019-02-15T20:27:31.309Z,52.70
2019-02-15T20:30:03.255Z,49.63
2019-02-15T20:32:33.703Z,47.20
2019-02-15T20:35:04.127Z,49.67
2019-02-15T20:37:34.979Z,51.77
2019-02-15T20:40:05.757Z,59.70
2019-02-15T20:42:36.099Z,57.17
2019-02-15T20:45:08.054Z,54.23
2019-02-15T20:47:38.388Z,57.70
2019-02-15T20:50:09.378Z,57.30
2019-02-15T20:52:40.139Z,54.57
2019-02-15T20:55:11.771Z,53.50
2019-02-15T20:57:43.116Z,58.00
2019-02-15T21:00:15.961Z,57.20
2019-02-15T21:02:46.340Z,55.90
2019-02-15T21:05:16.702Z,57.20
2019-02-15T21:07:47.447Z,58.30
2019-02-15T21:10:17.769Z,57.17
2019-02-15T21:12:48.328Z,56.63
2019-02-15T21:15:18.646Z,55.63
2019-02-15T21:17:49.139Z,59.70
2019-02-15T21:20:19.467Z,56.67
2019-02-15T21:22:50.064Z,53.10
2019-02-15T21:25:20.398Z,54.27
2019-02-15T21:27:50.731Z,42.43
2019-02-15T21:30:21.104Z,62.60
2019-02-15T21:32:51.439Z,56.93
2019-02-15T21:35:21.731Z,59.90
2019-02-15T21:37:52.391Z,60.13
2019-02-15T21:40:22.739Z,59.70
2019-02-15T21:42:53.208Z,38.80
2019-02-15T21:45:24.521Z,48.33
2019-02-15T21:47:55.147Z,46.50
2019-02-15T21:50:25.439Z,48.17
2019-02-15T21:52:56.014Z,51.13
2019-02-15T21:55:26.303Z,58.10
2019-02-15T21:58:01.591Z,53.43
2019-02-15T22:00:28.583Z,48.67
2019-02-15T22:02:58.895Z,51.80
2019-02-15T22:05:29.366Z,48.17
2019-02-15T22:07:59.852Z,49.83
2019-02-15T22:10:30.234Z,47.90
2019-02-15T22:13:00.562Z,48.60
2019-02-15T22:15:31.109Z,49.13
2019-02-15T22:18:01.431Z,52.60
2019-02-15T22:20:31.910Z,53.90
2019-02-15T22:23:02.442Z,45.57
2019-02-15T22:25:32.814Z,46.70
2019-02-15T22:28:03.094Z,42.20
2019-02-15T22:30:33.405Z,51.83
2019-02-15T22:33:03.777Z,38.53
2019-02-15T22:35:34.128Z,41.20
2019-02-15T22:38:04.634Z,42.43
2019-02-15T22:40:37.721Z,41.73
2019-02-15T22:43:10.855Z,38.40
2019-02-15T22:45:41.339Z,43.90
2019-02-15T22:48:11.654Z,44.20
2019-02-15T22:50:42.094Z,42.37
2019-02-15T22:53:12.571Z,43.17
2019-02-15T22:55:43.120Z,43.50
2019-02-15T22:58:13.474Z,42.10
2019-02-15T23:00:59.041Z,42.87
2019-02-15T23:03:29.373Z,41.60
2019-02-15T23:05:59.999Z,40.40
2019-02-15T23:08:30.614Z,38.77
2019-02-15T23:11:01.081Z,41.10
2019-02-15T23:13:31.423Z,41.03
2019-02-15T23:16:01.717Z,39.17
2019-02-15T23:18:32.203Z,38.60
2019-02-15T23:21:02.534Z,37.37
2019-02-15T23:23:33.366Z,41.00
2019-02-15T23:26:03.687Z,37.80
2019-02-15T23:28:34.023Z,38.07
2019-02-15T23:31:04.415Z,38.80
2019-02-15T23:33:34.727Z,40.00
2019-02-15T23:36:05.087Z,37.27
2019-02-15T23:38:35.585Z,36.03
2019-02-15T23:41:06.092Z,44.00
2019-02-15T23:43:36.406Z,45.77
2019-02-15T23:46:06.707Z,42.23
2019-02-15T23:48:37.234Z,36.87
2019-02-15T23:51:07.519Z,38.97
2019-02-15T23:53:38.295Z,38.13
2019-02-15T23:56:08.647Z,36.53
2019-02-15T23:58:39.331Z,41.17
